sensor_id;sensor_type;location;lat;lon;timestamp;P1;durP1;ratioP1;P2;durP2;ratioP2
9689;SDS011;4884;42.614;23.340;2023-07-30T13:23:14;6.70;;;5.60;;
9689;SDS011;4884;42.614;23.340;2023-07-30T14:33:34;6.45;;;5.80;;
9689;SDS011;4884;42.614;23.340;2023-07-30T16:05:48;8.65;;;6.07;;
9689;SDS011;4884;42.614;23.340;2023-07-30T17:50:06;8.47;;;7.23;;
9689;SDS011;4884;42.614;23.340;2023-07-30T17:52:31;9.40;;;8.50;;
9689;SDS011;4884;42.614;23.340;2023-07-30T17:54:57;9.87;;;8.37;;
9689;SDS011;4884;42.614;23.340;2023-07-30T17:57:22;8.27;;;7.50;;
9689;SDS011;4884;42.614;23.340;2023-07-30T18:28:53;8.10;;;7.30;;
9689;SDS011;4884;42.614;23.340;2023-07-30T20:27:51;9.00;;;6.22;;
9689;SDS011;4884;42.614;23.340;2023-07-30T20:30:16;11.10;;;6.40;;
9689;SDS011;4884;42.614;23.340;2023-07-30T20:32:42;6.78;;;6.18;;
9689;SDS011;4884;42.614;23.340;2023-07-30T20:35:08;13.13;;;5.80;;
9689;SDS011;4884;42.614;23.340;2023-07-30T20:37:33;8.33;;;5.90;;
9689;SDS011;4884;42.614;23.340;2023-07-30T20:52:08;6.63;;;4.53;;
9689;SDS011;4884;42.614;23.340;2023-07-30T20:54:36;4.97;;;4.53;;
9689;SDS011;4884;42.614;23.340;2023-07-30T20:57:01;7.17;;;4.50;;
9689;SDS011;4884;42.614;23.340;2023-07-30T20:59:30;5.17;;;4.47;;
9689;SDS011;4884;42.614;23.340;2023-07-30T21:01:55;4.90;;;4.50;;
9689;SDS011;4884;42.614;23.340;2023-07-30T21:04:21;5.10;;;4.70;;
9689;SDS011;4884;42.614;23.340;2023-07-30T21:06:49;4.60;;;4.25;;
9689;SDS011;4884;42.614;23.340;2023-07-30T21:09:15;5.30;;;4.87;;
9689;SDS011;4884;42.614;23.340;2023-07-30T21:11:40;5.07;;;4.67;;
9689;SDS011;4884;42.614;23.340;2023-07-30T21:14:06;5.10;;;4.70;;
9689;SDS011;4884;42.614;23.340;2023-07-30T21:16:31;5.68;;;4.97;;
9689;SDS011;4884;42.614;23.340;2023-07-30T21:18:57;5.47;;;5.03;;
9689;SDS011;4884;42.614;23.340;2023-07-30T21:21:23;5.45;;;4.85;;
9689;SDS011;4884;42.614;23.340;2023-07-30T21:38:22;5.03;;;4.60;;
9689;SDS011;4884;42.614;23.340;2023-07-30T21:40:47;4.43;;;4.13;;
9689;SDS011;4884;42.614;23.340;2023-07-30T21:43:13;4.70;;;4.30;;
9689;SDS011;4884;42.614;23.340;2023-07-30T21:45:38;4.27;;;3.97;;
9689;SDS011;4884;42.614;23.340;2023-07-30T21:48:04;4.30;;;4.00;;
9689;SDS011;4884;42.614;23.340;2023-07-30T21:50:30;4.28;;;3.80;;
9689;SDS011;4884;42.614;23.340;2023-07-30T21:52:55;4.03;;;3.73;;
9689;SDS011;4884;42.614;23.340;2023-07-30T21:55:21;4.35;;;4.05;;
9689;SDS011;4884;42.614;23.340;2023-07-30T21:57:47;4.40;;;4.10;;
9689;SDS011;4884;42.614;23.340;2023-07-30T22:00:13;4.00;;;3.70;;
9689;SDS011;4884;42.614;23.340;2023-07-30T22:02:39;4.60;;;4.20;;
9689;SDS011;4884;42.614;23.340;2023-07-30T22:05:04;4.20;;;3.80;;
9689;SDS011;4884;42.614;23.340;2023-07-30T22:07:30;4.15;;;3.80;;
9689;SDS011;4884;42.614;23.340;2023-07-30T22:09:55;4.13;;;3.73;;
9689;SDS011;4884;42.614;23.340;2023-07-30T22:12:21;4.07;;;3.77;;
9689;SDS011;4884;42.614;23.340;2023-07-30T22:14:46;4.30;;;4.00;;
9689;SDS011;4884;42.614;23.340;2023-07-30T22:17:11;4.35;;;3.95;;
9689;SDS011;4884;42.614;23.340;2023-07-30T22:19:37;4.20;;;3.80;;
9689;SDS011;4884;42.614;23.340;2023-07-30T22:22:02;4.30;;;3.90;;
9689;SDS011;4884;42.614;23.340;2023-07-30T22:24:28;3.75;;;3.45;;
9689;SDS011;4884;42.614;23.340;2023-07-30T22:31:44;3.83;;;3.53;;
9689;SDS011;4884;42.614;23.340;2023-07-30T22:34:10;4.22;;;3.90;;
9689;SDS011;4884;42.614;23.340;2023-07-30T22:36:35;3.90;;;3.60;;
9689;SDS011;4884;42.614;23.340;2023-07-30T22:39:00;4.20;;;3.90;;
9689;SDS011;4884;42.614;23.340;2023-07-30T22:41:26;3.97;;;3.67;;
9689;SDS011;4884;42.614;23.340;2023-07-30T22:43:51;4.33;;;4.03;;
9689;SDS011;4884;42.614;23.340;2023-07-30T22:53:32;5.97;;;4.40;;
9689;SDS011;4884;42.614;23.340;2023-07-30T22:55:58;4.87;;;4.47;;
9689;SDS011;4884;42.614;23.340;2023-07-30T22:58:23;4.33;;;4.03;;
9689;SDS011;4884;42.614;23.340;2023-07-30T23:00:48;4.60;;;4.20;;
9689;SDS011;4884;42.614;23.340;2023-07-30T23:03:14;6.30;;;5.70;;
9689;SDS011;4884;42.614;23.340;2023-07-30T23:05:39;5.87;;;5.37;;
9689;SDS011;4884;42.614;23.340;2023-07-30T23:08:05;5.20;;;4.80;;
9689;SDS011;4884;42.614;23.340;2023-07-30T23:10:30;6.00;;;5.60;;
9689;SDS011;4884;42.614;23.340;2023-07-30T23:12:55;5.57;;;5.17;;
9689;SDS011;4884;42.614;23.340;2023-07-30T23:15:21;5.97;;;5.47;;
9689;SDS011;4884;42.614;23.340;2023-07-30T23:17:46;6.60;;;6.03;;
9689;SDS011;4884;42.614;23.340;2023-07-30T23:20:12;6.53;;;5.90;;
9689;SDS011;4884;42.614;23.340;2023-07-30T23:22:38;6.37;;;5.80;;
9689;SDS011;4884;42.614;23.340;2023-07-30T23:25:03;7.27;;;6.57;;
9689;SDS011;4884;42.614;23.340;2023-07-30T23:27:30;8.30;;;6.30;;
9689;SDS011;4884;42.614;23.340;2023-07-30T23:29:56;8.90;;;6.87;;
9689;SDS011;4884;42.614;23.340;2023-07-30T23:32:21;7.73;;;6.93;;
9689;SDS011;4884;42.614;23.340;2023-07-30T23:37:12;6.50;;;6.00;;
9689;SDS011;4884;42.614;23.340;2023-07-30T23:39:37;7.87;;;7.27;;
9689;SDS011;4884;42.614;23.340;2023-07-30T23:42:02;7.03;;;6.43;;
9689;SDS011;4884;42.614;23.340;2023-07-30T23:44:28;6.63;;;6.13;;
9689;SDS011;4884;42.614;23.340;2023-07-30T23:46:53;6.90;;;6.30;;
9689;SDS011;4884;42.614;23.340;2023-07-30T23:49:19;8.17;;;7.00;;
9689;SDS011;4884;42.614;23.340;2023-07-30T23:51:44;7.00;;;6.40;;
9689;SDS011;4884;42.614;23.340;2023-07-30T23:54:09;6.87;;;6.27;;
9689;SDS011;4884;42.614;23.340;2023-07-30T23:56:35;8.30;;;7.67;;
9689;SDS011;4884;42.614;23.340;2023-07-30T23:59:00;8.37;;;7.40;;
